Topeka, KS (66611)

03:18 AM CDT die 26o July, anno 2016 (GMT -0500)
central topeka 2 | | Change Station

Elev 945 ft 39.03 °N, 95.71 °W | Updated 2 minutes ago

Clear
Serena
68.9 °F
Feels Like 68.9 °F
N
0.0
Ventus Variabilis Ventus from Magis Zephyrus quam Aquilo

Hodie
High -- | Low -- °F
--% Chance of Precip.
Yesterday
High -- | Low -- °F
Precip. -- in
Pressio 30.01 in
Visibilitas 10.0 milia passuum
Clouds Serena
Frigus in quo Ros apparet 67 °F
Umor 95%
Rainfall 0.00 in
Snow Depth Not available.
6:18 AM 8:39 PM
Waning Gibbous, 57% visible
METAR KFOE 260753Z AUTO 00000KT 10SM CLR 22/19 A3005 RMK AO2 SLP163 T02220194
Pressio 30.01 in
Visibilitas 10.0 milia passuum
Clouds Serena
Frigus in quo Ros apparet 67 °F
Umor 95%
Rainfall 0.00 in
Snow Depth Not available.
6:18 AM 8:39 PM
Waning Gibbous, 57% visible
METAR KFOE 260753Z AUTO 00000KT 10SM CLR 22/19 A3005 RMK AO2 SLP163 T02220194

10-Day Weather Forecast

Almanac

Astronomy

Jul. 26, 2016 Rise Set
Actual Time
Civil Twilight
Nautical Twilight
Astronomical Twilight
Moon
Length Of Visible Light
Length of Day
Tomorrow will be .
, % of the Moon is Illuminated

Today's Extremes

State Highs State Lows

Community

WunderPhotos

Upload Photos

1,927,551 photos uploaded!

WunderBlog® & News

Nearby

Air Quality

  Air Quality AQ Index Pollutant
Not available.

Snow Depth

Station Depth Elevation

Earthquake Activity

City Distance Mag. Time & Date
Minimum magnitude displayed is 2.5.

Coastal Water Temperatures

Locus Calor

Stations

Nearby Weather Stations

Station Location Temp Frigus Venti Frigus in quo Ros apparet Umor Ventus Precip. Elev Renovata Type
                   

Watches & Warnings

There are currently no watches in effect.